sensor_id;sensor_type;location;lat;lon;timestamp;P1;durP1;ratioP1;P2;durP2;ratioP2
51244;SDS011;37840;47.562;18.738;2023-11-22T00:00:20;9.70;;;8.70;;
51244;SDS011;37840;47.562;18.738;2023-11-22T00:02:46;11.25;;;8.90;;
51244;SDS011;37840;47.562;18.738;2023-11-22T00:05:12;12.13;;;9.73;;
51244;SDS011;37840;47.562;18.738;2023-11-22T00:07:38;11.00;;;9.45;;
51244;SDS011;37840;47.562;18.738;2023-11-22T00:10:05;11.77;;;10.02;;
51244;SDS011;37840;47.562;18.738;2023-11-22T00:12:31;11.12;;;9.38;;
51244;SDS011;37840;47.562;18.738;2023-11-22T00:15:04;11.32;;;9.30;;
51244;SDS011;37840;47.562;18.738;2023-11-22T00:17:33;12.15;;;10.02;;
51244;SDS011;37840;47.562;18.738;2023-11-22T00:20:00;13.27;;;10.23;;
51244;SDS011;37840;47.562;18.738;2023-11-22T00:22:28;11.12;;;9.50;;
51244;SDS011;37840;47.562;18.738;2023-11-22T00:24:58;11.10;;;9.43;;
51244;SDS011;37840;47.562;18.738;2023-11-22T00:27:24;11.25;;;9.27;;
51244;SDS011;37840;47.562;18.738;2023-11-22T00:29:50;12.13;;;9.90;;
51244;SDS011;37840;47.562;18.738;2023-11-22T00:32:18;11.82;;;9.23;;
51244;SDS011;37840;47.562;18.738;2023-11-22T00:34:44;13.35;;;10.30;;
51244;SDS011;37840;47.562;18.738;2023-11-22T00:37:10;10.02;;;9.00;;
51244;SDS011;37840;47.562;18.738;2023-11-22T00:39:36;11.25;;;9.00;;
51244;SDS011;37840;47.562;18.738;2023-11-22T00:42:03;10.77;;;9.23;;
51244;SDS011;37840;47.562;18.738;2023-11-22T00:44:29;11.35;;;9.35;;
51244;SDS011;37840;47.562;18.738;2023-11-22T00:46:56;12.30;;;9.50;;
51244;SDS011;37840;47.562;18.738;2023-11-22T00:49:23;11.85;;;9.50;;
51244;SDS011;37840;47.562;18.738;2023-11-22T00:51:49;12.35;;;9.30;;
51244;SDS011;37840;47.562;18.738;2023-11-22T00:54:16;10.57;;;8.32;;
51244;SDS011;37840;47.562;18.738;2023-11-22T00:56:42;11.77;;;8.85;;
51244;SDS011;37840;47.562;18.738;2023-11-22T00:59:08;10.48;;;9.05;;
51244;SDS011;37840;47.562;18.738;2023-11-22T01:01:34;11.07;;;9.45;;
51244;SDS011;37840;47.562;18.738;2023-11-22T01:04:00;10.52;;;8.98;;
51244;SDS011;37840;47.562;18.738;2023-11-22T01:06:26;9.73;;;8.57;;
51244;SDS011;37840;47.562;18.738;2023-11-22T01:08:52;13.55;;;9.65;;
51244;SDS011;37840;47.562;18.738;2023-11-22T01:11:18;12.05;;;8.98;;
51244;SDS011;37840;47.562;18.738;2023-11-22T01:13:44;11.45;;;9.10;;
51244;SDS011;37840;47.562;18.738;2023-11-22T01:16:10;11.80;;;9.45;;
51244;SDS011;37840;47.562;18.738;2023-11-22T01:18:36;10.90;;;9.40;;
51244;SDS011;37840;47.562;18.738;2023-11-22T01:21:02;10.88;;;8.45;;
51244;SDS011;37840;47.562;18.738;2023-11-22T01:23:32;11.38;;;9.70;;
51244;SDS011;37840;47.562;18.738;2023-11-22T01:25:58;9.95;;;8.75;;
51244;SDS011;37840;47.562;18.738;2023-11-22T01:28:25;11.73;;;8.75;;
51244;SDS011;37840;47.562;18.738;2023-11-22T01:30:55;11.82;;;9.77;;
51244;SDS011;37840;47.562;18.738;2023-11-22T01:33:21;11.25;;;8.77;;
51244;SDS011;37840;47.562;18.738;2023-11-22T01:35:47;10.25;;;8.55;;
51244;SDS011;37840;47.562;18.738;2023-11-22T01:38:16;11.25;;;9.35;;
51244;SDS011;37840;47.562;18.738;2023-11-22T01:40:46;10.90;;;8.60;;
51244;SDS011;37840;47.562;18.738;2023-11-22T01:43:21;11.88;;;9.35;;
51244;SDS011;37840;47.562;18.738;2023-11-22T01:45:49;10.70;;;8.93;;
51244;SDS011;37840;47.562;18.738;2023-11-22T01:48:15;10.27;;;8.57;;
51244;SDS011;37840;47.562;18.738;2023-11-22T01:50:42;13.70;;;9.32;;
51244;SDS011;37840;47.562;18.738;2023-11-22T01:53:10;11.68;;;9.13;;
51244;SDS011;37840;47.562;18.738;2023-11-22T01:55:39;11.75;;;9.20;;
51244;SDS011;37840;47.562;18.738;2023-11-22T01:58:06;10.30;;;9.05;;
51244;SDS011;37840;47.562;18.738;2023-11-22T02:00:36;12.37;;;9.32;;
51244;SDS011;37840;47.562;18.738;2023-11-22T02:03:06;10.50;;;8.75;;
51244;SDS011;37840;47.562;18.738;2023-11-22T02:05:32;11.70;;;9.07;;
51244;SDS011;37840;47.562;18.738;2023-11-22T02:07:59;9.82;;;8.63;;
51244;SDS011;37840;47.562;18.738;2023-11-22T02:10:25;10.80;;;9.05;;
51244;SDS011;37840;47.562;18.738;2023-11-22T02:12:51;11.02;;;8.80;;
51244;SDS011;37840;47.562;18.738;2023-11-22T02:15:17;10.43;;;8.27;;
51244;SDS011;37840;47.562;18.738;2023-11-22T02:17:43;9.60;;;8.38;;
51244;SDS011;37840;47.562;18.738;2023-11-22T02:20:10;8.82;;;7.47;;
51244;SDS011;37840;47.562;18.738;2023-11-22T02:22:45;8.80;;;7.78;;
51244;SDS011;37840;47.562;18.738;2023-11-22T02:25:12;8.10;;;7.28;;
51244;SDS011;37840;47.562;18.738;2023-11-22T02:27:40;8.43;;;7.37;;
51244;SDS011;37840;47.562;18.738;2023-11-22T02:30:08;9.32;;;7.75;;
51244;SDS011;37840;47.562;18.738;2023-11-22T02:32:34;9.15;;;7.72;;
51244;SDS011;37840;47.562;18.738;2023-11-22T02:35:00;8.15;;;7.32;;
51244;SDS011;37840;47.562;18.738;2023-11-22T02:37:26;9.38;;;7.97;;
51244;SDS011;37840;47.562;18.738;2023-11-22T02:40:04;9.13;;;7.05;;
51244;SDS011;37840;47.562;18.738;2023-11-22T02:42:31;11.57;;;7.97;;
51244;SDS011;37840;47.562;18.738;2023-11-22T02:44:57;9.50;;;7.78;;
51244;SDS011;37840;47.562;18.738;2023-11-22T02:47:23;9.80;;;8.45;;
51244;SDS011;37840;47.562;18.738;2023-11-22T02:49:49;8.50;;;7.57;;
51244;SDS011;37840;47.562;18.738;2023-11-22T02:52:15;10.20;;;8.23;;
51244;SDS011;37840;47.562;18.738;2023-11-22T02:54:44;9.00;;;7.97;;
51244;SDS011;37840;47.562;18.738;2023-11-22T02:57:13;9.00;;;7.80;;
51244;SDS011;37840;47.562;18.738;2023-11-22T02:59:42;9.18;;;8.13;;
51244;SDS011;37840;47.562;18.738;2023-11-22T03:02:09;9.57;;;8.25;;
51244;SDS011;37840;47.562;18.738;2023-11-22T03:04:35;9.20;;;7.87;;
51244;SDS011;37840;47.562;18.738;2023-11-22T03:07:01;9.55;;;8.10;;
51244;SDS011;37840;47.562;18.738;2023-11-22T03:09:27;9.25;;;8.27;;
51244;SDS011;37840;47.562;18.738;2023-11-22T03:11:53;9.20;;;7.80;;
51244;SDS011;37840;47.562;18.738;2023-11-22T03:14:20;8.48;;;7.53;;
51244;SDS011;37840;47.562;18.738;2023-11-22T03:16:47;9.57;;;7.50;;
51244;SDS011;37840;47.562;18.738;2023-11-22T03:19:14;8.18;;;7.37;;
51244;SDS011;37840;47.562;18.738;2023-11-22T03:21:40;8.77;;;7.43;;
51244;SDS011;37840;47.562;18.738;2023-11-22T03:24:09;7.95;;;7.07;;
51244;SDS011;37840;47.562;18.738;2023-11-22T03:26:35;8.50;;;7.62;;
51244;SDS011;37840;47.562;18.738;2023-11-22T03:29:01;8.95;;;7.43;;
51244;SDS011;37840;47.562;18.738;2023-11-22T03:31:28;8.85;;;7.50;;
51244;SDS011;37840;47.562;18.738;2023-11-22T03:33:54;9.18;;;7.12;;
51244;SDS011;37840;47.562;18.738;2023-11-22T03:36:20;8.95;;;7.45;;
51244;SDS011;37840;47.562;18.738;2023-11-22T03:38:48;8.63;;;7.72;;
51244;SDS011;37840;47.562;18.738;2023-11-22T03:41:15;8.15;;;7.15;;
51244;SDS011;37840;47.562;18.738;2023-11-22T03:43:43;8.00;;;7.20;;
51244;SDS011;37840;47.562;18.738;2023-11-22T03:46:09;8.23;;;7.35;;
51244;SDS011;37840;47.562;18.738;2023-11-22T03:48:37;8.45;;;7.55;;
51244;SDS011;37840;47.562;18.738;2023-11-22T03:51:03;8.13;;;7.28;;
51244;SDS011;37840;47.562;18.738;2023-11-22T03:53:29;8.23;;;7.43;;
51244;SDS011;37840;47.562;18.738;2023-11-22T03:55:55;8.98;;;7.57;;
51244;SDS011;37840;47.562;18.738;2023-11-22T03:58:20;8.27;;;7.28;;
51244;SDS011;37840;47.562;18.738;2023-11-22T04:00:47;8.68;;;7.75;;
51244;SDS011;37840;47.562;18.738;2023-11-22T04:03:13;8.70;;;7.37;;
51244;SDS011;37840;47.562;18.738;2023-11-22T04:05:39;8.40;;;7.45;;
51244;SDS011;37840;47.562;18.738;2023-11-22T04:08:05;8.20;;;7.15;;
51244;SDS011;37840;47.562;18.738;2023-11-22T04:10:31;7.70;;;7.00;;
51244;SDS011;37840;47.562;18.738;2023-11-22T04:12:57;7.95;;;7.15;;
51244;SDS011;37840;47.562;18.738;2023-11-22T04:15:22;8.18;;;7.37;;
51244;SDS011;37840;47.562;18.738;2023-11-22T04:17:48;8.75;;;7.85;;
51244;SDS011;37840;47.562;18.738;2023-11-22T04:20:14;7.95;;;6.90;;
51244;SDS011;37840;47.562;18.738;2023-11-22T04:22:41;7.35;;;6.65;;
51244;SDS011;37840;47.562;18.738;2023-11-22T04:25:12;7.65;;;6.72;;
51244;SDS011;37840;47.562;18.738;2023-11-22T04:27:41;8.38;;;7.43;;
51244;SDS011;37840;47.562;18.738;2023-11-22T04:30:08;7.95;;;7.15;;
51244;SDS011;37840;47.562;18.738;2023-11-22T04:35:05;8.95;;;6.35;;
51244;SDS011;37840;47.562;18.738;2023-11-22T04:37:31;8.10;;;6.60;;
51244;SDS011;37840;47.562;18.738;2023-11-22T04:39:58;7.18;;;6.40;;
51244;SDS011;37840;47.562;18.738;2023-11-22T04:42:24;7.32;;;6.62;;
51244;SDS011;37840;47.562;18.738;2023-11-22T04:44:50;8.50;;;6.90;;
51244;SDS011;37840;47.562;18.738;2023-11-22T04:47:16;7.68;;;6.28;;
51244;SDS011;37840;47.562;18.738;2023-11-22T04:49:42;6.05;;;5.03;;
51244;SDS011;37840;47.562;18.738;2023-11-22T04:52:07;6.07;;;5.47;;
51244;SDS011;37840;47.562;18.738;2023-11-22T04:54:33;6.87;;;6.18;;
51244;SDS011;37840;47.562;18.738;2023-11-22T04:56:59;6.60;;;5.40;;
51244;SDS011;37840;47.562;18.738;2023-11-22T04:59:25;6.20;;;5.57;;
51244;SDS011;37840;47.562;18.738;2023-11-22T05:01:51;5.93;;;5.07;;
51244;SDS011;37840;47.562;18.738;2023-11-22T05:04:17;6.37;;;5.57;;
51244;SDS011;37840;47.562;18.738;2023-11-22T05:06:44;6.30;;;5.68;;
51244;SDS011;37840;47.562;18.738;2023-11-22T05:09:11;6.43;;;5.30;;
51244;SDS011;37840;47.562;18.738;2023-11-22T05:11:39;6.00;;;5.40;;
51244;SDS011;37840;47.562;18.738;2023-11-22T05:14:07;6.00;;;5.40;;
51244;SDS011;37840;47.562;18.738;2023-11-22T05:16:33;9.48;;;5.95;;
51244;SDS011;37840;47.562;18.738;2023-11-22T05:18:59;7.35;;;6.37;;
51244;SDS011;37840;47.562;18.738;2023-11-22T05:21:25;6.90;;;5.53;;
51244;SDS011;37840;47.562;18.738;2023-11-22T05:23:51;7.25;;;5.82;;
51244;SDS011;37840;47.562;18.738;2023-11-22T05:26:20;5.97;;;5.32;;
51244;SDS011;37840;47.562;18.738;2023-11-22T05:28:47;6.62;;;5.47;;
51244;SDS011;37840;47.562;18.738;2023-11-22T05:31:13;7.45;;;6.07;;
51244;SDS011;37840;47.562;18.738;2023-11-22T05:33:39;7.70;;;5.62;;
51244;SDS011;37840;47.562;18.738;2023-11-22T05:36:06;5.70;;;5.03;;
51244;SDS011;37840;47.562;18.738;2023-11-22T05:38:33;7.40;;;5.28;;
51244;SDS011;37840;47.562;18.738;2023-11-22T05:40:59;5.68;;;5.07;;
51244;SDS011;37840;47.562;18.738;2023-11-22T05:43:26;6.40;;;5.72;;
51244;SDS011;37840;47.562;18.738;2023-11-22T05:45:52;6.22;;;5.28;;
51244;SDS011;37840;47.562;18.738;2023-11-22T05:48:19;7.35;;;5.80;;
51244;SDS011;37840;47.562;18.738;2023-11-22T05:50:48;7.37;;;5.45;;
51244;SDS011;37840;47.562;18.738;2023-11-22T05:53:14;6.30;;;5.50;;
51244;SDS011;37840;47.562;18.738;2023-11-22T05:55:48;6.35;;;5.72;;
51244;SDS011;37840;47.562;18.738;2023-11-22T05:58:14;7.82;;;5.30;;
51244;SDS011;37840;47.562;18.738;2023-11-22T06:00:45;5.75;;;5.12;;
51244;SDS011;37840;47.562;18.738;2023-11-22T06:03:11;5.95;;;5.35;;
51244;SDS011;37840;47.562;18.738;2023-11-22T06:05:38;6.32;;;5.18;;
51244;SDS011;37840;47.562;18.738;2023-11-22T06:08:05;6.05;;;5.45;;
51244;SDS011;37840;47.562;18.738;2023-11-22T06:10:32;5.57;;;5.03;;
51244;SDS011;37840;47.562;18.738;2023-11-22T06:12:58;5.18;;;4.68;;
51244;SDS011;37840;47.562;18.738;2023-11-22T06:15:24;5.55;;;4.82;;
51244;SDS011;37840;47.562;18.738;2023-11-22T06:17:49;6.50;;;5.07;;
51244;SDS011;37840;47.562;18.738;2023-11-22T06:20:15;5.72;;;4.97;;
51244;SDS011;37840;47.562;18.738;2023-11-22T06:22:41;6.10;;;5.00;;
51244;SDS011;37840;47.562;18.738;2023-11-22T06:25:11;6.55;;;5.62;;
51244;SDS011;37840;47.562;18.738;2023-11-22T06:27:37;5.68;;;4.80;;
51244;SDS011;37840;47.562;18.738;2023-11-22T06:30:04;5.93;;;5.10;;
51244;SDS011;37840;47.562;18.738;2023-11-22T06:32:32;5.25;;;4.72;;
51244;SDS011;37840;47.562;18.738;2023-11-22T06:35:00;5.15;;;4.65;;
51244;SDS011;37840;47.562;18.738;2023-11-22T06:37:26;6.10;;;5.30;;
51244;SDS011;37840;47.562;18.738;2023-11-22T06:39:52;6.28;;;5.25;;
51244;SDS011;37840;47.562;18.738;2023-11-22T06:42:18;7.10;;;5.37;;
51244;SDS011;37840;47.562;18.738;2023-11-22T06:44:47;7.65;;;5.80;;
51244;SDS011;37840;47.562;18.738;2023-11-22T06:47:13;6.72;;;5.55;;
51244;SDS011;37840;47.562;18.738;2023-11-22T06:49:39;5.95;;;5.18;;
51244;SDS011;37840;47.562;18.738;2023-11-22T06:52:05;8.20;;;5.80;;
51244;SDS011;37840;47.562;18.738;2023-11-22T06:54:31;6.82;;;5.60;;
51244;SDS011;37840;47.562;18.738;2023-11-22T06:56:57;6.97;;;6.28;;
51244;SDS011;37840;47.562;18.738;2023-11-22T06:59:23;7.60;;;6.30;;
51244;SDS011;37840;47.562;18.738;2023-11-22T07:01:49;8.55;;;6.43;;
51244;SDS011;37840;47.562;18.738;2023-11-22T07:04:15;6.65;;;5.55;;
51244;SDS011;37840;47.562;18.738;2023-11-22T07:06:41;7.60;;;5.85;;
51244;SDS011;37840;47.562;18.738;2023-11-22T07:09:08;6.68;;;5.60;;
51244;SDS011;37840;47.562;18.738;2023-11-22T07:11:37;10.75;;;7.12;;
51244;SDS011;37840;47.562;18.738;2023-11-22T07:14:03;12.60;;;7.75;;
51244;SDS011;37840;47.562;18.738;2023-11-22T07:16:35;30.55;;;14.32;;
51244;SDS011;37840;47.562;18.738;2023-11-22T07:19:01;9.30;;;7.05;;
51244;SDS011;37840;47.562;18.738;2023-11-22T07:23:58;6.35;;;5.75;;
51244;SDS011;37840;47.562;18.738;2023-11-22T07:26:24;6.40;;;5.60;;
51244;SDS011;37840;47.562;18.738;2023-11-22T07:28:52;6.60;;;5.87;;
51244;SDS011;37840;47.562;18.738;2023-11-22T07:31:19;6.18;;;5.22;;
51244;SDS011;37840;47.562;18.738;2023-11-22T07:33:45;6.75;;;5.70;;
51244;SDS011;37840;47.562;18.738;2023-11-22T07:36:12;7.87;;;6.15;;
51244;SDS011;37840;47.562;18.738;2023-11-22T07:38:41;6.18;;;5.45;;
51244;SDS011;37840;47.562;18.738;2023-11-22T07:41:08;8.20;;;6.32;;
51244;SDS011;37840;47.562;18.738;2023-11-22T07:43:34;7.55;;;5.62;;
51244;SDS011;37840;47.562;18.738;2023-11-22T07:46:05;6.68;;;5.97;;
51244;SDS011;37840;47.562;18.738;2023-11-22T07:48:38;7.10;;;6.03;;
51244;SDS011;37840;47.562;18.738;2023-11-22T07:51:07;8.00;;;6.43;;
51244;SDS011;37840;47.562;18.738;2023-11-22T07:53:34;6.20;;;5.45;;
51244;SDS011;37840;47.562;18.738;2023-11-22T07:56:00;7.68;;;6.00;;
51244;SDS011;37840;47.562;18.738;2023-11-22T07:58:30;7.05;;;6.03;;
51244;SDS011;37840;47.562;18.738;2023-11-22T08:00:59;6.32;;;5.45;;
51244;SDS011;37840;47.562;18.738;2023-11-22T08:03:25;6.60;;;5.95;;
51244;SDS011;37840;47.562;18.738;2023-11-22T08:05:52;7.95;;;5.70;;
51244;SDS011;37840;47.562;18.738;2023-11-22T08:08:21;7.22;;;6.32;;
51244;SDS011;37840;47.562;18.738;2023-11-22T08:10:48;6.70;;;5.47;;
51244;SDS011;37840;47.562;18.738;2023-11-22T08:13:17;6.55;;;5.80;;
51244;SDS011;37840;47.562;18.738;2023-11-22T08:15:45;6.57;;;5.62;;
51244;SDS011;37840;47.562;18.738;2023-11-22T08:18:13;6.53;;;5.65;;
51244;SDS011;37840;47.562;18.738;2023-11-22T08:20:39;6.50;;;5.47;;
51244;SDS011;37840;47.562;18.738;2023-11-22T08:23:06;8.20;;;5.72;;
51244;SDS011;37840;47.562;18.738;2023-11-22T08:25:32;9.05;;;6.40;;
51244;SDS011;37840;47.562;18.738;2023-11-22T08:27:58;6.15;;;5.55;;
51244;SDS011;37840;47.562;18.738;2023-11-22T08:30:23;6.90;;;5.70;;
51244;SDS011;37840;47.562;18.738;2023-11-22T08:32:49;7.28;;;6.45;;
51244;SDS011;37840;47.562;18.738;2023-11-22T08:35:19;8.10;;;6.10;;
51244;SDS011;37840;47.562;18.738;2023-11-22T08:37:49;6.82;;;6.07;;
51244;SDS011;37840;47.562;18.738;2023-11-22T08:40:16;8.82;;;6.00;;
51244;SDS011;37840;47.562;18.738;2023-11-22T08:42:46;6.55;;;5.65;;
51244;SDS011;37840;47.562;18.738;2023-11-22T08:45:12;6.93;;;5.95;;
51244;SDS011;37840;47.562;18.738;2023-11-22T08:47:41;8.27;;;6.25;;
51244;SDS011;37840;47.562;18.738;2023-11-22T08:50:08;6.62;;;5.93;;
51244;SDS011;37840;47.562;18.738;2023-11-22T08:52:37;6.85;;;6.10;;
51244;SDS011;37840;47.562;18.738;2023-11-22T08:55:04;7.22;;;6.07;;
51244;SDS011;37840;47.562;18.738;2023-11-22T08:57:36;6.62;;;5.90;;
51244;SDS011;37840;47.562;18.738;2023-11-22T09:00:03;7.22;;;6.03;;
51244;SDS011;37840;47.562;18.738;2023-11-22T09:02:37;8.13;;;6.45;;
51244;SDS011;37840;47.562;18.738;2023-11-22T09:05:04;7.15;;;6.30;;
51244;SDS011;37840;47.562;18.738;2023-11-22T09:07:34;7.43;;;6.47;;
51244;SDS011;37840;47.562;18.738;2023-11-22T09:10:02;9.20;;;6.95;;
51244;SDS011;37840;47.562;18.738;2023-11-22T09:12:38;8.15;;;6.30;;
51244;SDS011;37840;47.562;18.738;2023-11-22T09:15:09;7.87;;;6.87;;
51244;SDS011;37840;47.562;18.738;2023-11-22T09:17:39;9.32;;;7.15;;
51244;SDS011;37840;47.562;18.738;2023-11-22T09:22:41;8.98;;;7.12;;
51244;SDS011;37840;47.562;18.738;2023-11-22T09:25:11;8.63;;;6.90;;
51244;SDS011;37840;47.562;18.738;2023-11-22T09:27:37;10.70;;;7.62;;
51244;SDS011;37840;47.562;18.738;2023-11-22T09:30:04;10.80;;;7.40;;
51244;SDS011;37840;47.562;18.738;2023-11-22T09:32:31;9.75;;;7.85;;
51244;SDS011;37840;47.562;18.738;2023-11-22T09:34:57;11.55;;;8.45;;
51244;SDS011;37840;47.562;18.738;2023-11-22T09:37:24;9.95;;;7.75;;
51244;SDS011;37840;47.562;18.738;2023-11-22T09:39:51;11.38;;;8.43;;
51244;SDS011;37840;47.562;18.738;2023-11-22T09:42:16;11.70;;;8.40;;
51244;SDS011;37840;47.562;18.738;2023-11-22T09:44:43;11.77;;;8.80;;
51244;SDS011;37840;47.562;18.738;2023-11-22T09:47:09;11.98;;;9.07;;
51244;SDS011;37840;47.562;18.738;2023-11-22T09:49:35;11.90;;;9.05;;
51244;SDS011;37840;47.562;18.738;2023-11-22T09:52:06;12.90;;;9.50;;
51244;SDS011;37840;47.562;18.738;2023-11-22T09:54:37;14.82;;;10.05;;
51244;SDS011;37840;47.562;18.738;2023-11-22T09:57:05;13.95;;;10.25;;
51244;SDS011;37840;47.562;18.738;2023-11-22T09:59:36;15.23;;;10.45;;
51244;SDS011;37840;47.562;18.738;2023-11-22T10:02:05;14.35;;;10.02;;
51244;SDS011;37840;47.562;18.738;2023-11-22T10:04:32;13.75;;;9.98;;
51244;SDS011;37840;47.562;18.738;2023-11-22T10:06:59;15.25;;;10.75;;
51244;SDS011;37840;47.562;18.738;2023-11-22T10:09:26;16.73;;;12.73;;
51244;SDS011;37840;47.562;18.738;2023-11-22T10:12:01;16.95;;;11.75;;
51244;SDS011;37840;47.562;18.738;2023-11-22T10:14:28;16.35;;;11.52;;
51244;SDS011;37840;47.562;18.738;2023-11-22T10:17:00;18.67;;;12.13;;
51244;SDS011;37840;47.562;18.738;2023-11-22T10:19:27;18.37;;;12.13;;
51244;SDS011;37840;47.562;18.738;2023-11-22T10:22:04;18.35;;;12.45;;
51244;SDS011;37840;47.562;18.738;2023-11-22T10:24:34;18.87;;;12.70;;
51244;SDS011;37840;47.562;18.738;2023-11-22T10:27:01;18.15;;;12.48;;
51244;SDS011;37840;47.562;18.738;2023-11-22T10:29:28;18.65;;;12.90;;
51244;SDS011;37840;47.562;18.738;2023-11-22T10:31:54;18.55;;;12.43;;
51244;SDS011;37840;47.562;18.738;2023-11-22T10:34:21;17.30;;;12.77;;
51244;SDS011;37840;47.562;18.738;2023-11-22T10:36:49;18.08;;;13.23;;
51244;SDS011;37840;47.562;18.738;2023-11-22T10:39:21;18.77;;;12.98;;
51244;SDS011;37840;47.562;18.738;2023-11-22T10:41:47;17.42;;;12.82;;
51244;SDS011;37840;47.562;18.738;2023-11-22T10:44:15;19.65;;;13.80;;
51244;SDS011;37840;47.562;18.738;2023-11-22T10:46:41;18.73;;;13.75;;
51244;SDS011;37840;47.562;18.738;2023-11-22T10:49:08;18.40;;;13.32;;
51244;SDS011;37840;47.562;18.738;2023-11-22T10:51:34;19.60;;;15.48;;
51244;SDS011;37840;47.562;18.738;2023-11-22T10:54:05;22.02;;;16.65;;
51244;SDS011;37840;47.562;18.738;2023-11-22T10:56:36;23.20;;;17.17;;
51244;SDS011;37840;47.562;18.738;2023-11-22T10:59:06;20.30;;;15.95;;
51244;SDS011;37840;47.562;18.738;2023-11-22T11:01:37;21.20;;;16.50;;
51244;SDS011;37840;47.562;18.738;2023-11-22T11:04:13;21.00;;;16.92;;
51244;SDS011;37840;47.562;18.738;2023-11-22T11:06:46;21.58;;;16.67;;
51244;SDS011;37840;47.562;18.738;2023-11-22T11:09:16;20.90;;;16.25;;
51244;SDS011;37840;47.562;18.738;2023-11-22T11:11:46;20.80;;;16.23;;
51244;SDS011;37840;47.562;18.738;2023-11-22T11:14:13;21.35;;;15.05;;
51244;SDS011;37840;47.562;18.738;2023-11-22T11:16:41;17.45;;;14.35;;
51244;SDS011;37840;47.562;18.738;2023-11-22T11:19:12;19.27;;;14.63;;
51244;SDS011;37840;47.562;18.738;2023-11-22T11:21:40;18.58;;;14.00;;
51244;SDS011;37840;47.562;18.738;2023-11-22T11:24:06;17.40;;;13.32;;
51244;SDS011;37840;47.562;18.738;2023-11-22T11:26:32;15.07;;;12.75;;
51244;SDS011;37840;47.562;18.738;2023-11-22T11:29:02;15.38;;;12.35;;
51244;SDS011;37840;47.562;18.738;2023-11-22T11:31:33;14.87;;;11.77;;
51244;SDS011;37840;47.562;18.738;2023-11-22T11:34:05;13.60;;;11.20;;
51244;SDS011;37840;47.562;18.738;2023-11-22T11:36:31;13.95;;;11.40;;
51244;SDS011;37840;47.562;18.738;2023-11-22T11:38:58;13.93;;;11.15;;
51244;SDS011;37840;47.562;18.738;2023-11-22T11:41:32;13.13;;;10.50;;
51244;SDS011;37840;47.562;18.738;2023-11-22T11:44:01;12.65;;;10.23;;
51244;SDS011;37840;47.562;18.738;2023-11-22T11:46:28;13.45;;;10.55;;
51244;SDS011;37840;47.562;18.738;2023-11-22T11:48:55;10.07;;;8.25;;
51244;SDS011;37840;47.562;18.738;2023-11-22T11:51:25;9.98;;;8.48;;
51244;SDS011;37840;47.562;18.738;2023-11-22T11:53:52;9.50;;;8.25;;
51244;SDS011;37840;47.562;18.738;2023-11-22T11:56:19;9.10;;;7.85;;
51244;SDS011;37840;47.562;18.738;2023-11-22T11:58:47;10.52;;;7.75;;
51244;SDS011;37840;47.562;18.738;2023-11-22T12:01:18;9.35;;;7.20;;
51244;SDS011;37840;47.562;18.738;2023-11-22T12:03:47;9.18;;;8.18;;
51244;SDS011;37840;47.562;18.738;2023-11-22T12:06:16;10.20;;;7.68;;
51244;SDS011;37840;47.562;18.738;2023-11-22T12:08:43;7.95;;;7.15;;
51244;SDS011;37840;47.562;18.738;2023-11-22T12:11:10;10.13;;;7.75;;
51244;SDS011;37840;47.562;18.738;2023-11-22T12:13:36;9.73;;;7.35;;
51244;SDS011;37840;47.562;18.738;2023-11-22T12:16:15;9.32;;;7.68;;
51244;SDS011;37840;47.562;18.738;2023-11-22T12:21:09;8.48;;;7.30;;
51244;SDS011;37840;47.562;18.738;2023-11-22T12:23:40;8.63;;;7.32;;
51244;SDS011;37840;47.562;18.738;2023-11-22T12:26:16;8.18;;;7.37;;
51244;SDS011;37840;47.562;18.738;2023-11-22T12:28:45;10.35;;;7.32;;
51244;SDS011;37840;47.562;18.738;2023-11-22T12:33:42;9.13;;;7.47;;
51244;SDS011;37840;47.562;18.738;2023-11-22T12:36:10;10.57;;;7.95;;
51244;SDS011;37840;47.562;18.738;2023-11-22T12:38:42;9.27;;;8.23;;
51244;SDS011;37840;47.562;18.738;2023-11-22T12:41:08;9.38;;;7.93;;
51244;SDS011;37840;47.562;18.738;2023-11-22T12:43:34;9.40;;;7.82;;
51244;SDS011;37840;47.562;18.738;2023-11-22T12:46:04;10.65;;;8.55;;
51244;SDS011;37840;47.562;18.738;2023-11-22T12:48:43;9.97;;;8.33;;
51244;SDS011;37840;47.562;18.738;2023-11-22T12:51:17;9.85;;;8.60;;
51244;SDS011;37840;47.562;18.738;2023-11-22T12:53:46;9.57;;;7.87;;
51244;SDS011;37840;47.562;18.738;2023-11-22T12:56:13;10.77;;;8.57;;
51244;SDS011;37840;47.562;18.738;2023-11-22T12:58:39;9.23;;;7.53;;
51244;SDS011;37840;47.562;18.738;2023-11-22T13:01:05;9.35;;;7.40;;
51244;SDS011;37840;47.562;18.738;2023-11-22T13:03:31;7.35;;;6.60;;
51244;SDS011;37840;47.562;18.738;2023-11-22T13:05:57;7.80;;;7.00;;
51244;SDS011;37840;47.562;18.738;2023-11-22T13:08:23;7.90;;;6.65;;
51244;SDS011;37840;47.562;18.738;2023-11-22T13:10:54;7.20;;;6.45;;
51244;SDS011;37840;47.562;18.738;2023-11-22T13:13:22;8.05;;;6.05;;
51244;SDS011;37840;47.562;18.738;2023-11-22T13:15:49;7.05;;;6.18;;
51244;SDS011;37840;47.562;18.738;2023-11-22T13:18:16;7.12;;;5.97;;
51244;SDS011;37840;47.562;18.738;2023-11-22T13:20:42;6.72;;;5.60;;
51244;SDS011;37840;47.562;18.738;2023-11-22T13:23:09;7.32;;;6.62;;
51244;SDS011;37840;47.562;18.738;2023-11-22T13:25:35;6.35;;;5.62;;
51244;SDS011;37840;47.562;18.738;2023-11-22T13:28:02;6.85;;;5.55;;
51244;SDS011;37840;47.562;18.738;2023-11-22T13:30:30;6.30;;;5.57;;
51244;SDS011;37840;47.562;18.738;2023-11-22T13:32:56;6.07;;;5.45;;
51244;SDS011;37840;47.562;18.738;2023-11-22T13:35:23;6.68;;;5.78;;
51244;SDS011;37840;47.562;18.738;2023-11-22T13:37:49;5.55;;;4.82;;
51244;SDS011;37840;47.562;18.738;2023-11-22T13:40:16;5.68;;;5.07;;
51244;SDS011;37840;47.562;18.738;2023-11-22T13:42:47;6.18;;;5.57;;
51244;SDS011;37840;47.562;18.738;2023-11-22T13:45:16;5.68;;;5.05;;
51244;SDS011;37840;47.562;18.738;2023-11-22T13:47:49;7.10;;;4.87;;
51244;SDS011;37840;47.562;18.738;2023-11-22T13:50:39;6.35;;;5.20;;
51244;SDS011;37840;47.562;18.738;2023-11-22T13:53:05;6.50;;;4.60;;
51244;SDS011;37840;47.562;18.738;2023-11-22T13:55:31;6.10;;;4.65;;
51244;SDS011;37840;47.562;18.738;2023-11-22T13:57:58;5.47;;;4.85;;
51244;SDS011;37840;47.562;18.738;2023-11-22T14:00:26;5.35;;;4.60;;
51244;SDS011;37840;47.562;18.738;2023-11-22T14:02:57;6.07;;;5.20;;
51244;SDS011;37840;47.562;18.738;2023-11-22T14:05:29;5.87;;;4.85;;
51244;SDS011;37840;47.562;18.738;2023-11-22T14:07:56;5.28;;;4.62;;
51244;SDS011;37840;47.562;18.738;2023-11-22T14:10:22;5.85;;;4.70;;
51244;SDS011;37840;47.562;18.738;2023-11-22T14:12:48;5.97;;;4.90;;
51244;SDS011;37840;47.562;18.738;2023-11-22T14:15:15;5.60;;;4.70;;
51244;SDS011;37840;47.562;18.738;2023-11-22T14:17:41;5.07;;;4.57;;
51244;SDS011;37840;47.562;18.738;2023-11-22T14:20:11;6.10;;;4.78;;
51244;SDS011;37840;47.562;18.738;2023-11-22T14:22:38;5.37;;;4.60;;
51244;SDS011;37840;47.562;18.738;2023-11-22T14:25:05;5.37;;;4.68;;
51244;SDS011;37840;47.562;18.738;2023-11-22T14:27:39;5.72;;;4.90;;
51244;SDS011;37840;47.562;18.738;2023-11-22T14:30:06;5.80;;;5.15;;
51244;SDS011;37840;47.562;18.738;2023-11-22T14:32:34;6.25;;;5.60;;
51244;SDS011;37840;47.562;18.738;2023-11-22T14:35:03;5.50;;;4.75;;
51244;SDS011;37840;47.562;18.738;2023-11-22T14:37:30;5.37;;;4.47;;
51244;SDS011;37840;47.562;18.738;2023-11-22T14:39:57;6.18;;;5.10;;
51244;SDS011;37840;47.562;18.738;2023-11-22T14:42:23;6.60;;;5.60;;